Latest Weather Observations for Nuriootpa

IDS60901

Issued at 5:05 am CST Friday 1 August 2014 (issued every 10 minutes, with the page automatically refreshed every 10 minutes)

About weather observations | Map of Adelaide area stations | Latest observations for Adelaide area | Other Formats
Station Details ID: 023373 Name: NURIOOTPA VITICULTURAL Lat: -34.48 Lon: 139.01 Height: 275.0 m
Data from the previous 72 hours. | See also: Recent months at Nuriootpa
Date/Time
CST
Tmp

°C
App
Tmp
°C
Dew
Point
°C
Rel
Hum
%
Delta-T

°C
Wind Press
QNH
hPa
Press
MSL
hPa
Rain
since
9 am
mm
Dir
 
Spd
km/h
Gust
km/h
Spd
kts
Gust
kts
01/05:00am 4.7 -0.9 3.5 92 0.5 WNW 22 30 12 16 1011.8 - 10.0
01/04:30am 4.8 -0.8 3.6 92 0.5 W 22 32 12 17 1011.8 1012.1 10.0
01/04:00am 5.1 -2.1 3.2 87 0.8 W 30 41 16 22 1011.4 - 10.0
01/03:30am 5.1 -1.8 2.4 83 1.1 W 28 35 15 19 1011.5 1011.8 10.0
01/03:04am 5.2 -2.2 3.8 91 0.6 W 32 50 17 27 1011.4 - 10.0
01/03:00am 5.1 -1.6 3.7 91 0.6 W 28 39 15 21 1011.4 1011.7 10.0
01/02:30am 5.1 -1.4 2.9 86 0.9 W 26 37 14 20 1011.5 1011.8 10.0
01/02:00am 5.4 -3.0 1.7 77 1.5 W 35 54 19 29 1011.6 - 10.0
01/01:54am 5.6 -1.2 3.0 83 1.1 W 28 48 15 26 1011.6 - 10.0
01/01:30am 5.5 -0.4 3.9 89 0.7 WNW 24 35 13 19 1011.3 1011.6 10.0
01/01:00am 5.6 -0.7 3.7 87 0.8 WNW 26 35 14 19 1011.4 - 10.0
01/12:30am 5.4 -0.2 3.3 86 0.9 WNW 22 33 12 18 1011.4 1011.7 10.0
01/12:00am 5.6 0.9 3.2 84 1.0 NW 17 22 9 12 1011.2 1011.5 10.0
 
Date/Time
CST
Tmp

°C
App
Tmp
°C
Dew
Point
°C
Rel
Hum
%
Delta-T

°C
Wind Press
QNH
hPa
Press
MSL
hPa
Rain
since
9 am
mm
Dir
 
Spd
km/h
Gust
km/h
Spd
kts
Gust
kts
31/11:30pm 5.6 0.3 3.2 84 1.0 WNW 20 28 11 15 1011.4 1011.7 10.0
31/11:00pm 5.5 0.3 3.4 86 0.9 WNW 20 28 11 15 1011.1 - 10.0
31/10:30pm 5.7 1.1 3.8 87 0.8 W 17 26 9 14 1011.2 1011.5 10.0
31/10:00pm 5.2 1.0 3.8 91 0.6 WNW 15 22 8 12 1011.1 - 10.0
31/09:30pm 5.6 0.4 3.5 86 0.9 W 20 33 11 18 1011.0 1011.3 10.0
31/09:00pm 5.7 0.5 3.3 84 1.0 W 20 30 11 16 1010.7 1011.0 10.0
31/08:30pm 5.7 0.2 3.8 87 0.8 W 22 33 12 18 1010.5 1010.8 10.0
31/08:04pm 6.3 -0.3 4.0 85 1.0 W 28 50 15 27 1010.0 - 10.0
31/08:00pm 6.6 0.9 4.8 88 0.8 W 24 35 13 19 1009.9 - 9.6
31/07:30pm 6.6 1.7 5.0 89 0.7 W 20 30 11 16 1009.5 1009.8 9.6
31/07:00pm 6.6 1.1 5.7 94 0.4 WSW 24 32 13 17 1009.2 - 9.6
31/06:35pm 6.6 -0.4 5.9 95 0.3 WSW 32 50 17 27 1009.0 - 9.6
31/06:30pm 6.6 -1.4 5.7 94 0.4 WSW 37 54 20 29 1008.8 1009.1 9.4
31/06:20pm 7.3 0.8 6.4 94 0.4 W 30 52 16 28 1008.5 - 9.0
31/06:00pm 7.5 0.4 6.6 94 0.4 W 33 48 18 26 1008.0 1008.3 8.8
31/05:33pm 8.2 1.4 7.1 93 0.5 W 32 57 17 31 1007.6 - 8.4
31/05:30pm 8.3 1.6 7.5 95 0.4 WSW 32 46 17 25 1007.5 1007.8 8.4
31/05:12pm 9.0 1.5 8.0 93 0.5 W 37 63 20 34 1006.9 - 8.0
31/05:00pm 8.9 2.3 8.5 97 0.2 W 33 48 18 26 1006.5 - 6.8
31/04:30pm 8.5 1.4 8.1 97 0.2 W 35 52 19 28 1006.5 1006.8 6.2
31/04:02pm 9.8 2.9 8.8 93 0.5 W 35 57 19 31 1006.2 - 4.4
31/04:00pm 10.0 3.5 9.0 93 0.5 W 33 48 18 26 1005.8 - 4.2
31/03:30pm 9.9 2.5 8.3 90 0.8 W 37 61 20 33 1005.7 1006.0 4.0
31/03:00pm 9.6 2.7 9.0 96 0.3 WSW 35 54 19 29 1005.6 1005.9 3.6
31/02:39pm 9.2 1.5 8.8 97 0.2 WSW 39 57 21 31 1005.2 - 3.2
31/02:30pm 9.2 1.6 9.0 99 0.1 WSW 39 54 21 29 1005.1 1005.4 2.6
31/02:11pm 10.1 2.7 9.7 97 0.2 W 39 57 21 31 1004.5 - 1.8
31/02:00pm 10.6 2.3 10.0 96 0.3 W 44 59 24 32 1004.2 - 1.2
31/01:30pm 13.2 3.7 8.3 72 2.5 WNW 48 69 26 37 1003.7 1004.0 0.0
31/01:00pm 15.4 4.5 5.3 51 4.9 WNW 52 70 28 38 1003.7 - 0.0
31/12:30pm 15.8 5.3 5.8 51 4.9 WNW 50 69 27 37 1004.2 1004.5 0.0
31/12:00pm 15.4 4.1 5.3 51 4.9 WNW 54 76 29 41 1004.6 1004.9 0.0
31/11:30am 15.2 5.4 5.3 51 4.8 WNW 46 65 25 35 1005.1 1005.4 0.0
31/11:00am 15.0 4.5 5.5 53 4.6 WNW 50 70 27 38 1005.4 - 0.0
31/10:30am 14.0 5.6 5.7 57 4.0 WNW 39 57 21 31 1005.9 1006.2 0.0
31/10:00am 13.3 4.0 5.1 57 3.9 WNW 43 63 23 34 1006.4 - 0.0
31/09:34am 13.0 4.4 4.9 58 3.8 WNW 39 57 21 31 1006.5 - 0.0
31/09:30am 12.7 3.7 4.8 58 3.7 WNW 41 57 22 31 1006.5 1006.8 0.0
31/09:00am 12.3 2.9 4.5 59 3.6 WNW 43 61 23 33 1006.5 1006.8 0.0
31/08:30am 12.0 3.4 4.4 59 3.5 WNW 39 57 21 31 1006.7 1006.9 0.0
31/08:27am 12.0 3.4 4.4 59 3.5 WNW 39 57 21 31 1006.7 - 0.0
31/08:00am 11.6 3.7 4.2 60 3.4 WNW 35 52 19 28 1006.3 - 0.0
31/07:30am 11.2 2.9 4.2 62 3.2 WNW 37 52 20 28 1006.7 1006.9 0.0
31/07:18am 11.2 3.2 3.9 61 3.3 WNW 35 54 19 29 1006.7 - 0.0
31/07:00am 10.7 3.7 4.3 64 2.9 WNW 30 44 16 24 1007.0 - 0.0
31/06:30am 10.8 4.3 4.5 65 2.9 WNW 28 43 15 23 1007.2 1007.5 0.0
31/06:00am 10.8 5.8 4.5 65 2.9 WNW 20 32 11 17 1007.6 1007.9 0.0
31/05:30am 10.5 6.5 4.9 68 2.6 NW 15 24 8 13 1007.9 1008.2 0.0
31/05:00am 10.5 6.5 4.9 68 2.6 NW 15 26 8 14 1008.2 - 0.0
31/04:30am 10.6 6.7 5.2 69 2.5 NW 15 22 8 12 1008.5 1008.8 0.0
31/04:00am 10.8 5.9 5.2 68 2.6 WNW 20 32 11 17 1009.0 - 0.0
31/03:30am 11.0 6.1 5.2 67 2.7 WNW 20 30 11 16 1009.3 1009.6 0.0
31/03:00am 11.4 5.4 5.2 65 2.9 WNW 26 35 14 19 1009.6 1009.9 0.0
31/02:30am 11.5 5.9 5.6 67 2.8 WNW 24 35 13 19 1010.1 1010.5 0.0
31/02:00am 11.8 6.2 5.4 65 3.0 WNW 24 33 13 18 1010.3 - 0.0
31/01:30am 11.8 5.9 5.9 67 2.8 WNW 26 39 14 21 1010.7 1011.0 0.0
31/01:00am 11.7 6.0 6.5 70 2.5 WNW 26 37 14 20 1011.2 - 0.0
31/12:30am 11.7 6.4 7.0 73 2.3 WNW 24 33 13 18 1011.6 1011.9 0.0
31/12:00am 12.3 6.3 7.0 70 2.6 WNW 28 37 15 20 1012.0 1012.3 0.0
 
Date/Time
CST
Tmp

°C
App
Tmp
°C
Dew
Point
°C
Rel
Hum
%
Delta-T

°C
Wind Press
QNH
hPa
Press
MSL
hPa
Rain
since
9 am
mm
Dir
 
Spd
km/h
Gust
km/h
Spd
kts
Gust
kts
30/11:30pm 12.3 6.1 7.7 73 2.3 WNW 30 43 16 23 1012.3 1012.6 0.0
30/11:00pm 12.5 7.1 7.9 73 2.3 WNW 26 33 14 18 1012.7 - 0.0
30/10:30pm 12.4 7.8 8.2 75 2.1 WNW 22 32 12 17 1013.2 1013.6 0.0
30/10:00pm 12.5 8.3 8.1 74 2.2 WNW 20 28 11 15 1013.6 - 0.0
30/09:30pm 12.2 8.6 8.4 77 1.9 WNW 17 24 9 13 1014.0 1014.4 0.0
30/09:00pm 11.7 9.0 8.9 83 1.4 NW 13 19 7 10 1014.5 1014.8 0.0
30/08:30pm 11.5 9.7 9.3 86 1.1 NW 9 15 5 8 1014.7 1015.0 0.0
30/08:00pm 11.6 9.4 9.4 86 1.1 NNW 11 13 6 7 1014.9 - 0.0
30/07:30pm 11.9 9.8 9.6 86 1.2 NW 11 15 6 8 1015.0 1015.3 0.0
30/07:00pm 11.7 9.7 10.2 90 0.8 WNW 11 15 6 8 1015.1 - 0.0
30/06:30pm 12.1 10.2 10.4 89 0.9 WNW 11 15 6 8 1015.2 1015.5 0.0
30/06:00pm 12.8 10.5 10.3 85 1.3 NW 13 19 7 10 1015.1 1015.4 0.0
30/05:30pm 13.2 10.1 10.3 82 1.5 WNW 17 24 9 13 1015.1 1015.4 0.0
30/05:00pm 13.7 9.7 10.3 80 1.8 WNW 22 30 12 16 1015.2 - 0.0
30/04:30pm 13.9 9.8 10.1 78 2.0 WNW 22 35 12 19 1015.3 1015.6 0.0
30/04:00pm 14.1 9.7 10.3 78 2.0 NW 24 37 13 20 1015.4 - 0.0
30/03:30pm 14.1 9.2 10.1 77 2.1 WNW 26 41 14 22 1015.6 1015.9 0.0
30/03:00pm 13.8 9.1 10.6 81 1.7 WNW 26 39 14 21 1015.7 1016.0 0.0
30/02:30pm 13.9 9.9 10.5 80 1.8 WNW 22 43 12 23 1016.0 1016.4 0.0
30/02:00pm 14.2 9.0 10.4 78 2.0 WNW 28 39 15 21 1016.2 - 0.0
30/01:30pm 14.0 8.8 10.2 78 2.0 WNW 28 39 15 21 1016.5 1016.9 0.0
30/01:00pm 14.0 9.3 10.6 80 1.8 WNW 26 39 14 21 1016.8 - 0.0
30/12:30pm 14.5 9.4 10.6 77 2.1 WNW 28 43 15 23 1017.3 1017.7 0.0
30/12:00pm 14.4 10.2 11.0 80 1.8 WNW 24 37 13 20 1017.8 1018.2 0.0
30/11:30am 13.6 8.1 10.4 81 1.7 WNW 30 43 16 23 1018.3 1018.6 0.0
30/11:00am 13.0 8.6 10.5 85 1.3 WNW 24 37 13 20 1018.7 - 0.0
30/10:30am 12.6 8.2 10.5 87 1.1 WNW 24 35 13 19 1019.0 1019.4 0.0
30/10:00am 12.2 7.8 10.5 89 0.9 WNW 24 35 13 19 1019.0 - 0.0
30/09:30am 12.0 6.9 10.7 92 0.7 WNW 28 37 15 20 1019.1 1019.5 0.0
30/09:00am 12.0 7.6 10.5 90 0.8 WNW 24 33 13 18 1018.8 1019.1 6.2
30/08:30am 11.7 7.4 10.6 93 0.6 WNW 24 33 13 18 1018.3 1018.6 6.2
30/08:00am 11.4 6.2 10.4 94 0.5 WNW 28 39 15 21 1018.4 - 6.2
30/07:30am 11.1 6.3 10.3 95 0.4 WNW 26 35 14 19 1018.5 1018.8 6.2
30/07:00am 11.0 6.5 10.2 95 0.4 WNW 24 35 13 19 1018.2 - 6.2
30/06:30am 11.3 6.9 10.5 95 0.4 WNW 24 41 13 22 1018.1 1018.4 6.2
30/06:00am 11.3 7.3 10.5 95 0.4 WNW 22 30 12 16 1017.8 1018.2 6.2
30/05:30am 11.3 7.3 10.3 94 0.5 WNW 22 33 12 18 1017.7 1018.1 6.2
30/05:00am 11.3 7.6 10.3 94 0.5 WNW 20 32 11 17 1017.8 - 6.2
30/04:30am 11.3 6.9 10.5 95 0.4 WNW 24 35 13 19 1017.7 1018.1 6.2
30/04:00am 11.3 7.4 10.7 96 0.3 WNW 22 32 12 17 1018.1 - 6.2
30/03:30am 11.2 7.8 10.6 96 0.3 WNW 19 28 10 15 1018.3 1018.6 6.2
30/03:00am 10.9 7.9 10.5 97 0.2 NW 17 24 9 13 1018.4 1018.7 6.0
30/02:30am 11.1 7.6 10.3 95 0.4 NW 19 28 10 15 1018.7 1019.0 5.6
30/02:00am 11.1 7.7 10.7 97 0.2 WNW 19 28 10 15 1019.0 - 5.4
30/01:30am 11.3 7.9 11.1 99 0.1 WNW 20 30 11 16 1019.2 1019.6 5.2
30/01:00am 11.1 7.5 10.7 97 0.2 WNW 20 32 11 17 1019.4 - 5.0
30/12:30am 11.0 7.6 10.4 96 0.3 WNW 19 28 10 15 1019.4 1019.8 4.8
30/12:00am 11.0 7.6 10.6 97 0.2 WNW 19 24 10 13 1019.6 1020.0 4.0
 
Date/Time
CST
Tmp

°C
App
Tmp
°C
Dew
Point
°C
Rel
Hum
%
Delta-T

°C
Wind Press
QNH
hPa
Press
MSL
hPa
Rain
since
9 am
mm
Dir
 
Spd
km/h
Gust
km/h
Spd
kts
Gust
kts
29/11:30pm 11.3 7.9 10.7 96 0.3 WNW 19 28 10 15 1019.7 1020.1 3.2
29/11:00pm 11.8 8.2 10.7 93 0.6 WNW 20 28 11 15 1019.6 - 2.0
29/10:30pm 12.0 9.3 10.5 90 0.8 WNW 15 22 8 12 1019.5 1019.9 0.8
29/10:00pm 12.2 9.9 10.5 89 0.9 WNW 13 20 7 11 1019.7 - 0.6
29/09:30pm 12.3 10.0 10.6 89 0.9 W 13 20 7 11 1019.6 1020.0 0.6
29/09:00pm 12.5 9.8 10.4 87 1.1 WNW 15 20 8 11 1019.2 1019.6 0.4
29/08:30pm 12.8 10.1 10.3 85 1.3 WNW 15 20 8 11 1019.0 1019.4 0.4
29/08:00pm 13.2 10.0 9.9 80 1.7 W 17 24 9 13 1018.9 - 0.4
29/07:30pm 13.3 9.6 10.0 80 1.7 W 20 28 11 15 1018.5 1018.8 0.4
29/07:00pm 13.7 10.0 10.1 79 1.9 WNW 20 32 11 17 1018.1 - 0.4
29/06:30pm 13.7 10.0 10.3 80 1.8 WNW 20 30 11 16 1017.8 1018.2 0.4
29/06:00pm 13.7 9.4 10.7 82 1.6 WNW 24 35 13 19 1017.9 1018.3 0.4
29/05:30pm 13.8 9.1 10.6 81 1.7 WNW 26 37 14 20 1017.6 1018.0 0.4
29/05:00pm 13.6 8.6 10.8 83 1.5 WNW 28 39 15 21 1017.4 - 0.4
29/04:30pm 13.3 9.2 11.4 88 1.0 WNW 24 30 13 16 1017.2 1017.6 0.4
29/04:00pm 13.1 9.4 11.6 91 0.8 WNW 22 30 12 16 1017.2 - 0.4
29/03:30pm 12.8 8.8 11.9 94 0.5 WNW 24 39 13 21 1017.1 1017.5 0.4
29/03:00pm 13.1 7.5 11.6 91 0.8 W 32 46 17 25 1017.0 1017.4 0.0
29/02:30pm 13.4 7.5 11.0 85 1.3 WNW 33 48 18 26 1016.8 1017.2 0.0
29/02:13pm 14.0 7.9 10.4 79 1.9 W 33 52 18 28 1016.5 - 0.0
29/02:00pm 14.1 8.0 10.5 79 1.9 W 33 44 18 24 1016.4 - 0.0
29/01:50pm 14.1 8.3 10.7 80 1.8 W 32 50 17 27 1016.4 - 0.0
29/01:30pm 14.2 8.2 10.8 80 1.8 W 33 50 18 27 1016.3 1016.7 0.0
29/01:12pm 13.5 8.6 11.3 86 1.2 W 28 46 15 25 1016.4 - 0.0
29/01:00pm 13.4 8.8 11.0 85 1.3 WNW 26 37 14 20 1016.5 - 0.0
29/12:30pm 13.4 7.5 10.6 83 1.5 WNW 32 44 17 24 1016.5 1016.9 0.0
29/12:12pm 13.0 6.9 10.5 85 1.3 WNW 33 52 18 28 1016.8 - 0.0
29/12:00pm 13.1 6.7 10.6 85 1.3 WNW 35 52 19 28 1017.0 1017.4 0.0
29/11:43am 13.3 6.5 10.5 83 1.5 WNW 37 56 20 30 1017.2 - 0.0
29/11:30am 13.5 7.0 10.5 82 1.6 WNW 35 52 19 28 1017.1 1017.5 0.0
29/11:00am 12.4 5.1 10.1 86 1.2 WNW 39 57 21 31 1017.1 - 0.0
29/10:30am 11.9 4.2 10.2 89 0.9 WNW 41 59 22 32 1017.0 1017.4 0.0
29/10:23am 12.4 4.9 9.3 81 1.6 WNW 39 57 21 31 1016.8 - 0.0
29/10:00am 12.6 4.2 9.1 79 1.8 WNW 43 57 23 31 1016.7 - 0.0
29/09:35am 12.3 5.4 8.7 79 1.8 WNW 35 54 19 29 1016.7 - 0.0
29/09:30am 12.3 5.0 8.7 79 1.8 WNW 37 52 20 28 1016.6 1017.0 0.0
29/09:03am 11.7 4.4 8.7 82 1.5 WNW 37 56 20 30 1016.8 - 0.0
29/09:00am 11.7 4.7 8.5 81 1.6 WNW 35 50 19 27 1016.7 1017.1 0.0
29/08:39am 11.5 4.1 8.5 82 1.5 WNW 37 59 20 32 1016.5 - 0.0
29/08:30am 11.2 3.4 8.2 82 1.5 WNW 39 54 21 29 1016.5 1016.9 0.0
29/08:00am 10.7 3.2 7.8 82 1.4 WNW 37 54 20 29 1016.0 - 0.0
29/07:38am 10.0 2.0 7.5 84 1.2 W 39 57 21 31 1015.7 - 0.0
29/07:30am 9.7 2.4 7.4 85 1.1 W 35 52 19 28 1015.7 1016.0 0.0
29/07:07am 10.2 1.8 7.3 82 1.4 WNW 41 59 22 32 1015.1 - 0.0
29/07:00am 10.1 1.7 7.2 82 1.4 WNW 41 56 22 30 1014.9 - 0.0
29/06:31am 10.1 2.4 7.0 81 1.5 WNW 37 56 20 30 1014.6 - 0.0
29/06:30am 10.1 2.0 7.0 81 1.5 WNW 39 56 21 30 1014.6 1014.9 0.0
29/06:00am 10.2 1.0 6.4 77 1.8 W 44 65 24 35 1014.7 1015.0 0.0
29/05:30am 10.2 1.8 5.7 73 2.1 W 39 57 21 31 1014.6 1014.9 0.0
29/05:14am 10.2 1.0 5.5 72 2.2 WNW 43 61 23 33 1014.1 - 0.0

Latest Capital City Observations: Canberra | Sydney | Melbourne | Brisbane | Adelaide | Perth | Hobart | Darwin

Other Formats:

Comma delimited format used in spreadsheet applications
http://www.bom.gov.au/fwo/IDS60901/IDS60901.94681.axf

JavaScript Object Notation format (JSON) in row-major order
http://www.bom.gov.au/fwo/IDS60901/IDS60901.94681.json